sensor_id;sensor_type;location;lat;lon;timestamp;pressure;altitude;pressure_sealevel;temperature;humidity
6942;BME280;3510;43.200;27.920;2024-02-26T00:00:26;100874.59;;;10.16;100.00
6942;BME280;3510;43.200;27.920;2024-02-26T00:02:54;100892.09;;;10.25;100.00
6942;BME280;3510;43.200;27.920;2024-02-26T00:05:20;100894.16;;;10.29;100.00
6942;BME280;3510;43.200;27.920;2024-02-26T00:07:47;100866.81;;;10.04;100.00
6942;BME280;3510;43.200;27.920;2024-02-26T00:10:16;100884.63;;;10.16;100.00
6942;BME280;3510;43.200;27.920;2024-02-26T00:12:43;100821.56;;;9.75;100.00
6942;BME280;3510;43.200;27.920;2024-02-26T00:15:10;100883.44;;;10.02;100.00
6942;BME280;3510;43.200;27.920;2024-02-26T00:17:37;100878.53;;;9.85;100.00
6942;BME280;3510;43.200;27.920;2024-02-26T00:20:05;100875.38;;;9.77;100.00
6942;BME280;3510;43.200;27.920;2024-02-26T00:22:34;100862.59;;;9.65;100.00
6942;BME280;3510;43.200;27.920;2024-02-26T00:25:03;100872.19;;;9.51;100.00
6942;BME280;3510;43.200;27.920;2024-02-26T00:27:32;100829.06;;;9.27;100.00
6942;BME280;3510;43.200;27.920;2024-02-26T00:29:59;100854.13;;;9.36;100.00
6942;BME280;3510;43.200;27.920;2024-02-26T00:32:26;100840.78;;;9.18;100.00
6942;BME280;3510;43.200;27.920;2024-02-26T00:34:52;100858.56;;;9.30;100.00
6942;BME280;3510;43.200;27.920;2024-02-26T00:37:19;100810.72;;;8.90;100.00
6942;BME280;3510;43.200;27.920;2024-02-26T00:39:48;100834.69;;;9.06;100.00
6942;BME280;3510;43.200;27.920;2024-02-26T00:42:15;100765.06;;;8.67;100.00
6942;BME280;3510;43.200;27.920;2024-02-26T00:44:44;100845.00;;;9.09;100.00
6942;BME280;3510;43.200;27.920;2024-02-26T00:47:11;100846.47;;;9.07;100.00
6942;BME280;3510;43.200;27.920;2024-02-26T00:49:38;100790.38;;;8.79;100.00
6942;BME280;3510;43.200;27.920;2024-02-26T00:52:06;100764.06;;;8.65;100.00
6942;BME280;3510;43.200;27.920;2024-02-26T00:54:33;100828.91;;;9.07;100.00
6942;BME280;3510;43.200;27.920;2024-02-26T00:57:01;100836.56;;;9.08;100.00
6942;BME280;3510;43.200;27.920;2024-02-26T00:59:28;100823.13;;;9.08;100.00
6942;BME280;3510;43.200;27.920;2024-02-26T01:01:56;100829.03;;;9.08;100.00
6942;BME280;3510;43.200;27.920;2024-02-26T01:04:24;100802.09;;;8.97;100.00
6942;BME280;3510;43.200;27.920;2024-02-26T01:06:51;100824.84;;;9.17;100.00
6942;BME280;3510;43.200;27.920;2024-02-26T01:09:17;100769.06;;;8.92;100.00
6942;BME280;3510;43.200;27.920;2024-02-26T01:11:44;100801.56;;;9.10;100.00
6942;BME280;3510;43.200;27.920;2024-02-26T01:14:12;100815.28;;;9.13;100.00
6942;BME280;3510;43.200;27.920;2024-02-26T01:16:40;100790.84;;;9.02;100.00
6942;BME280;3510;43.200;27.920;2024-02-26T01:19:08;100806.41;;;9.17;100.00
6942;BME280;3510;43.200;27.920;2024-02-26T01:21:35;100793.19;;;9.01;100.00
6942;BME280;3510;43.200;27.920;2024-02-26T01:24:02;100806.72;;;9.11;100.00
6942;BME280;3510;43.200;27.920;2024-02-26T01:26:28;100769.53;;;8.88;100.00
6942;BME280;3510;43.200;27.920;2024-02-26T01:28:56;100806.72;;;9.11;100.00
6942;BME280;3510;43.200;27.920;2024-02-26T01:31:23;100801.75;;;9.03;100.00
6942;BME280;3510;43.200;27.920;2024-02-26T01:33:50;100804.97;;;9.10;100.00
6942;BME280;3510;43.200;27.920;2024-02-26T01:36:19;100795.50;;;9.08;100.00
6942;BME280;3510;43.200;27.920;2024-02-26T01:38:47;100760.44;;;8.80;100.00
6942;BME280;3510;43.200;27.920;2024-02-26T01:41:14;100811.25;;;9.15;100.00
6942;BME280;3510;43.200;27.920;2024-02-26T01:43:41;100806.44;;;9.08;100.00
6942;BME280;3510;43.200;27.920;2024-02-26T01:46:11;100810.38;;;9.15;100.00
6942;BME280;3510;43.200;27.920;2024-02-26T01:48:39;100794.84;;;9.00;100.00
6942;BME280;3510;43.200;27.920;2024-02-26T01:51:07;100791.31;;;8.98;100.00
6942;BME280;3510;43.200;27.920;2024-02-26T01:53:35;100806.31;;;9.07;100.00
6942;BME280;3510;43.200;27.920;2024-02-26T01:56:03;100782.63;;;8.94;100.00
6942;BME280;3510;43.200;27.920;2024-02-26T01:58:30;100827.75;;;9.22;100.00
6942;BME280;3510;43.200;27.920;2024-02-26T02:00:58;100817.53;;;9.29;100.00
6942;BME280;3510;43.200;27.920;2024-02-26T02:03:26;100824.44;;;9.32;100.00
6942;BME280;3510;43.200;27.920;2024-02-26T02:05:53;100822.06;;;9.33;100.00
6942;BME280;3510;43.200;27.920;2024-02-26T02:08:19;100826.63;;;9.37;100.00
6942;BME280;3510;43.200;27.920;2024-02-26T02:10:48;100826.41;;;9.44;100.00
6942;BME280;3510;43.200;27.920;2024-02-26T02:13:15;100805.25;;;9.32;100.00
6942;BME280;3510;43.200;27.920;2024-02-26T02:15:42;100824.44;;;9.51;100.00
6942;BME280;3510;43.200;27.920;2024-02-26T02:18:10;100824.72;;;9.54;100.00
6942;BME280;3510;43.200;27.920;2024-02-26T02:20:38;100819.63;;;9.62;100.00
6942;BME280;3510;43.200;27.920;2024-02-26T02:23:05;100821.03;;;9.69;100.00
6942;BME280;3510;43.200;27.920;2024-02-26T02:25:32;100808.81;;;9.63;100.00
6942;BME280;3510;43.200;27.920;2024-02-26T02:27:58;100823.28;;;9.66;100.00
6942;BME280;3510;43.200;27.920;2024-02-26T02:30:28;100761.69;;;9.32;100.00
6942;BME280;3510;43.200;27.920;2024-02-26T02:32:57;100810.81;;;9.57;100.00
6942;BME280;3510;43.200;27.920;2024-02-26T02:35:24;100813.81;;;9.53;100.00
6942;BME280;3510;43.200;27.920;2024-02-26T02:37:52;100808.50;;;9.50;100.00
6942;BME280;3510;43.200;27.920;2024-02-26T02:40:20;100775.03;;;9.22;100.00
6942;BME280;3510;43.200;27.920;2024-02-26T02:42:47;100764.25;;;9.04;100.00
6942;BME280;3510;43.200;27.920;2024-02-26T02:45:14;100751.66;;;8.94;100.00
6942;BME280;3510;43.200;27.920;2024-02-26T02:47:41;100800.53;;;9.27;100.00
6942;BME280;3510;43.200;27.920;2024-02-26T02:50:08;100790.31;;;9.15;100.00
6942;BME280;3510;43.200;27.920;2024-02-26T02:52:35;100803.81;;;9.26;100.00
6942;BME280;3510;43.200;27.920;2024-02-26T02:55:04;100763.38;;;9.04;100.00
6942;BME280;3510;43.200;27.920;2024-02-26T02:57:31;100809.72;;;9.26;100.00
6942;BME280;3510;43.200;27.920;2024-02-26T02:59:58;100805.56;;;9.27;100.00
6942;BME280;3510;43.200;27.920;2024-02-26T03:02:25;100813.25;;;9.28;100.00
6942;BME280;3510;43.200;27.920;2024-02-26T03:04:52;100785.00;;;9.12;100.00
6942;BME280;3510;43.200;27.920;2024-02-26T03:07:19;100811.03;;;9.31;100.00
6942;BME280;3510;43.200;27.920;2024-02-26T03:09:46;100815.84;;;9.38;100.00
6942;BME280;3510;43.200;27.920;2024-02-26T03:12:29;100787.59;;;9.22;100.00
6942;BME280;3510;43.200;27.920;2024-02-26T03:14:57;100814.81;;;9.36;100.00
6942;BME280;3510;43.200;27.920;2024-02-26T03:17:24;100819.56;;;9.33;100.00
6942;BME280;3510;43.200;27.920;2024-02-26T03:19:50;100817.19;;;9.35;100.00
6942;BME280;3510;43.200;27.920;2024-02-26T03:22:19;100812.19;;;9.35;100.00
6942;BME280;3510;43.200;27.920;2024-02-26T03:24:46;100823.03;;;9.44;100.00
6942;BME280;3510;43.200;27.920;2024-02-26T03:27:13;100830.72;;;9.45;100.00
6942;BME280;3510;43.200;27.920;2024-02-26T03:29:41;100801.91;;;9.23;100.00
6942;BME280;3510;43.200;27.920;2024-02-26T03:32:08;100816.53;;;9.27;100.00
6942;BME280;3510;43.200;27.920;2024-02-26T03:34:35;100819.34;;;9.40;100.00
6942;BME280;3510;43.200;27.920;2024-02-26T03:37:04;100806.13;;;9.33;100.00
6942;BME280;3510;43.200;27.920;2024-02-26T03:39:31;100784.81;;;9.19;100.00
6942;BME280;3510;43.200;27.920;2024-02-26T03:42:12;100786.63;;;9.30;100.00
6942;BME280;3510;43.200;27.920;2024-02-26T03:44:54;100808.91;;;9.36;100.00
6942;BME280;3510;43.200;27.920;2024-02-26T03:47:21;100776.34;;;9.27;100.00
6942;BME280;3510;43.200;27.920;2024-02-26T03:49:48;100819.97;;;9.57;100.00
6942;BME280;3510;43.200;27.920;2024-02-26T03:52:14;100801.84;;;9.51;100.00
6942;BME280;3510;43.200;27.920;2024-02-26T03:54:41;100814.19;;;9.58;100.00
6942;BME280;3510;43.200;27.920;2024-02-26T03:57:08;100790.78;;;9.49;100.00
6942;BME280;3510;43.200;27.920;2024-02-26T03:59:35;100806.66;;;9.58;100.00
6942;BME280;3510;43.200;27.920;2024-02-26T04:02:34;100821.03;;;9.69;100.00
6942;BME280;3510;43.200;27.920;2024-02-26T04:05:00;100779.94;;;9.39;100.00
6942;BME280;3510;43.200;27.920;2024-02-26T04:07:27;100819.28;;;9.68;100.00
6942;BME280;3510;43.200;27.920;2024-02-26T04:09:54;100818.13;;;9.64;100.00
6942;BME280;3510;43.200;27.920;2024-02-26T04:12:21;100794.78;;;9.47;100.00
6942;BME280;3510;43.200;27.920;2024-02-26T04:14:48;100812.44;;;9.57;100.00
6942;BME280;3510;43.200;27.920;2024-02-26T04:17:28;100818.00;;;9.63;100.00
6942;BME280;3510;43.200;27.920;2024-02-26T04:19:57;100822.50;;;9.57;100.00
6942;BME280;3510;43.200;27.920;2024-02-26T04:22:23;100806.94;;;9.42;100.00
6942;BME280;3510;43.200;27.920;2024-02-26T04:24:50;100790.84;;;9.40;100.00
6942;BME280;3510;43.200;27.920;2024-02-26T04:27:17;100817.03;;;9.52;100.00
6942;BME280;3510;43.200;27.920;2024-02-26T04:29:43;100804.97;;;9.48;100.00
6942;BME280;3510;43.200;27.920;2024-02-26T04:32:10;100815.56;;;9.54;100.00
6942;BME280;3510;43.200;27.920;2024-02-26T04:34:37;100806.13;;;9.52;100.00
6942;BME280;3510;43.200;27.920;2024-02-26T04:37:05;100806.38;;;9.55;100.00
6942;BME280;3510;43.200;27.920;2024-02-26T04:39:32;100813.38;;;9.49;100.00
6942;BME280;3510;43.200;27.920;2024-02-26T04:41:59;100795.78;;;9.49;100.00
6942;BME280;3510;43.200;27.920;2024-02-26T04:44:29;100800.50;;;9.54;100.00
6942;BME280;3510;43.200;27.920;2024-02-26T04:46:56;100809.19;;;9.58;100.00
6942;BME280;3510;43.200;27.920;2024-02-26T04:49:22;100814.03;;;9.56;100.00
6942;BME280;3510;43.200;27.920;2024-02-26T04:51:49;100774.91;;;9.39;100.00
6942;BME280;3510;43.200;27.920;2024-02-26T04:54:18;100785.91;;;9.50;100.00
6942;BME280;3510;43.200;27.920;2024-02-26T04:56:44;100784.53;;;9.54;100.00
6942;BME280;3510;43.200;27.920;2024-02-26T04:59:11;100802.13;;;9.54;100.00
6942;BME280;3510;43.200;27.920;2024-02-26T05:01:39;100814.97;;;9.57;100.00
6942;BME280;3510;43.200;27.920;2024-02-26T05:04:07;100808.16;;;9.56;100.00
6942;BME280;3510;43.200;27.920;2024-02-26T05:06:33;100810.19;;;9.60;100.00
6942;BME280;3510;43.200;27.920;2024-02-26T05:09:00;100814.97;;;9.57;100.00
6942;BME280;3510;43.200;27.920;2024-02-26T05:11:30;100747.50;;;9.32;100.00
6942;BME280;3510;43.200;27.920;2024-02-26T05:13:57;100805.97;;;9.69;100.00
6942;BME280;3510;43.200;27.920;2024-02-26T05:16:25;100755.38;;;9.45;100.00
6942;BME280;3510;43.200;27.920;2024-02-26T05:18:52;100801.06;;;9.70;100.00
6942;BME280;3510;43.200;27.920;2024-02-26T05:21:19;100812.81;;;9.80;100.00
6942;BME280;3510;43.200;27.920;2024-02-26T05:23:46;100815.06;;;9.77;100.00
6942;BME280;3510;43.200;27.920;2024-02-26T05:26:19;100826.38;;;9.82;100.00
6942;BME280;3510;43.200;27.920;2024-02-26T05:28:48;100817.34;;;9.84;100.00
6942;BME280;3510;43.200;27.920;2024-02-26T05:31:16;100794.69;;;9.74;100.00
6942;BME280;3510;43.200;27.920;2024-02-26T05:33:43;100788.50;;;9.70;100.00
6942;BME280;3510;43.200;27.920;2024-02-26T05:36:10;100810.34;;;9.90;100.00
6942;BME280;3510;43.200;27.920;2024-02-26T05:38:44;100786.88;;;9.71;100.00
6942;BME280;3510;43.200;27.920;2024-02-26T05:41:12;100799.97;;;9.77;100.00
6942;BME280;3510;43.200;27.920;2024-02-26T05:43:38;100839.59;;;10.09;100.00
6942;BME280;3510;43.200;27.920;2024-02-26T05:46:07;100837.47;;;10.13;100.00
6942;BME280;3510;43.200;27.920;2024-02-26T05:48:34;100857.22;;;10.19;100.00
6942;BME280;3510;43.200;27.920;2024-02-26T05:51:01;100833.31;;;10.14;100.00
6942;BME280;3510;43.200;27.920;2024-02-26T05:53:28;100871.78;;;10.32;100.00
6942;BME280;3510;43.200;27.920;2024-02-26T05:55:55;100840.91;;;10.24;100.00
6942;BME280;3510;43.200;27.920;2024-02-26T05:58:22;100853.78;;;10.37;100.00
6942;BME280;3510;43.200;27.920;2024-02-26T06:00:49;100847.28;;;10.39;100.00
6942;BME280;3510;43.200;27.920;2024-02-26T06:03:17;100820.97;;;10.36;100.00
6942;BME280;3510;43.200;27.920;2024-02-26T06:05:45;100821.97;;;10.38;100.00
6942;BME280;3510;43.200;27.920;2024-02-26T06:08:13;100812.81;;;10.49;100.00
6942;BME280;3510;43.200;27.920;2024-02-26T06:10:40;100831.13;;;10.77;100.00
6942;BME280;3510;43.200;27.920;2024-02-26T06:13:07;100850.88;;;10.82;100.00
6942;BME280;3510;43.200;27.920;2024-02-26T06:15:34;100866.25;;;10.96;100.00
6942;BME280;3510;43.200;27.920;2024-02-26T06:18:01;100872.19;;;11.06;100.00
6942;BME280;3510;43.200;27.920;2024-02-26T06:20:29;100867.28;;;11.18;100.00
6942;BME280;3510;43.200;27.920;2024-02-26T06:22:56;100853.19;;;11.10;100.00
6942;BME280;3510;43.200;27.920;2024-02-26T06:25:23;100856.84;;;11.24;100.00
6942;BME280;3510;43.200;27.920;2024-02-26T06:27:51;100864.25;;;11.22;100.00
6942;BME280;3510;43.200;27.920;2024-02-26T06:30:18;100769.06;;;10.77;100.00
6942;BME280;3510;43.200;27.920;2024-02-26T06:32:45;100842.88;;;11.17;100.00
6942;BME280;3510;43.200;27.920;2024-02-26T06:35:12;100849.41;;;11.15;100.00
6942;BME280;3510;43.200;27.920;2024-02-26T06:37:40;100869.03;;;11.39;100.00
6942;BME280;3510;43.200;27.920;2024-02-26T06:40:08;100862.00;;;11.25;100.00
6942;BME280;3510;43.200;27.920;2024-02-26T06:42:35;100872.56;;;11.21;100.00
6942;BME280;3510;43.200;27.920;2024-02-26T06:45:03;100824.81;;;10.82;100.00
6942;BME280;3510;43.200;27.920;2024-02-26T06:47:30;100880.41;;;11.24;100.00
6942;BME280;3510;43.200;27.920;2024-02-26T06:49:58;100884.53;;;11.44;100.00
6942;BME280;3510;43.200;27.920;2024-02-26T06:52:26;100876.34;;;11.26;100.00
6942;BME280;3510;43.200;27.920;2024-02-26T06:54:54;100881.03;;;11.32;100.00
6942;BME280;3510;43.200;27.920;2024-02-26T06:57:21;100884.41;;;11.43;100.00
6942;BME280;3510;43.200;27.920;2024-02-26T06:59:49;100886.03;;;11.52;100.00
6942;BME280;3510;43.200;27.920;2024-02-26T07:02:16;100882.22;;;11.68;100.00
6942;BME280;3510;43.200;27.920;2024-02-26T07:04:43;100862.72;;;11.65;100.00
6942;BME280;3510;43.200;27.920;2024-02-26T07:07:10;100893.19;;;11.89;100.00
6942;BME280;3510;43.200;27.920;2024-02-26T07:09:37;100897.72;;;11.93;100.00
6942;BME280;3510;43.200;27.920;2024-02-26T07:12:05;100884.06;;;12.01;100.00
6942;BME280;3510;43.200;27.920;2024-02-26T07:14:32;100849.44;;;11.78;100.00
6942;BME280;3510;43.200;27.920;2024-02-26T07:16:59;100887.81;;;12.16;100.00
6942;BME280;3510;43.200;27.920;2024-02-26T07:19:26;100833.84;;;11.72;100.00
6942;BME280;3510;43.200;27.920;2024-02-26T07:21:53;100887.78;;;12.26;100.00
6942;BME280;3510;43.200;27.920;2024-02-26T07:24:21;100892.31;;;12.30;100.00
6942;BME280;3510;43.200;27.920;2024-02-26T07:26:48;100888.38;;;12.34;100.00
6942;BME280;3510;43.200;27.920;2024-02-26T07:29:16;100870.41;;;12.19;100.00
6942;BME280;3510;43.200;27.920;2024-02-26T07:31:43;100893.13;;;12.41;100.00
6942;BME280;3510;43.200;27.920;2024-02-26T07:34:10;100895.81;;;12.43;100.00
6942;BME280;3510;43.200;27.920;2024-02-26T07:36:39;100895.03;;;12.44;100.00
6942;BME280;3510;43.200;27.920;2024-02-26T07:39:06;100903.03;;;12.60;100.00
6942;BME280;3510;43.200;27.920;2024-02-26T07:41:34;100897.03;;;12.70;100.00
6942;BME280;3510;43.200;27.920;2024-02-26T07:44:01;100887.78;;;12.58;100.00
6942;BME280;3510;43.200;27.920;2024-02-26T07:46:29;100908.50;;;12.76;100.00
6942;BME280;3510;43.200;27.920;2024-02-26T07:48:56;100907.91;;;12.69;100.00
6942;BME280;3510;43.200;27.920;2024-02-26T07:51:24;100876.88;;;12.38;100.00
6942;BME280;3510;43.200;27.920;2024-02-26T07:53:51;100906.84;;;12.55;100.00
6942;BME280;3510;43.200;27.920;2024-02-26T07:56:18;100856.97;;;12.30;100.00
6942;BME280;3510;43.200;27.920;2024-02-26T07:58:45;100830.09;;;12.09;100.00
6942;BME280;3510;43.200;27.920;2024-02-26T08:01:13;100823.00;;;12.15;100.00
6942;BME280;3510;43.200;27.920;2024-02-26T08:13:26;100917.06;;;12.78;100.00
6942;BME280;3510;43.200;27.920;2024-02-26T08:15:52;100919.72;;;12.80;100.00
6942;BME280;3510;43.200;27.920;2024-02-26T08:18:33;100825.47;;;12.25;100.00
6942;BME280;3510;43.200;27.920;2024-02-26T08:21:14;100897.03;;;12.92;100.00
6942;BME280;3510;43.200;27.920;2024-02-26T08:23:42;100917.63;;;13.08;100.00
6942;BME280;3510;43.200;27.920;2024-02-26T08:26:10;100918.94;;;13.03;100.00
6942;BME280;3510;43.200;27.920;2024-02-26T08:28:40;100910.84;;;12.85;100.00
6942;BME280;3510;43.200;27.920;2024-02-26T08:31:07;100921.19;;;12.66;100.00
6942;BME280;3510;43.200;27.920;2024-02-26T08:33:47;100890.50;;;12.40;100.00
6942;BME280;3510;43.200;27.920;2024-02-26T08:36:14;100884.88;;;12.32;100.00
6942;BME280;3510;43.200;27.920;2024-02-26T08:38:55;100897.06;;;12.38;100.00
6942;BME280;3510;43.200;27.920;2024-02-26T08:41:36;100892.75;;;12.47;100.00
6942;BME280;3510;43.200;27.920;2024-02-26T08:44:04;100915.94;;;12.75;100.00
6942;BME280;3510;43.200;27.920;2024-02-26T08:46:31;100912.09;;;12.68;100.00
6942;BME280;3510;43.200;27.920;2024-02-26T08:48:58;100912.59;;;12.64;100.00
6942;BME280;3510;43.200;27.920;2024-02-26T08:51:41;100889.88;;;12.42;100.00
6942;BME280;3510;43.200;27.920;2024-02-26T08:54:22;100927.53;;;12.83;100.00
6942;BME280;3510;43.200;27.920;2024-02-26T08:56:49;100936.28;;;12.76;100.00
6942;BME280;3510;43.200;27.920;2024-02-26T08:59:17;100827.50;;;12.19;100.00
6942;BME280;3510;43.200;27.920;2024-02-26T09:01:58;100906.56;;;12.62;100.00
6942;BME280;3510;43.200;27.920;2024-02-26T09:04:25;100917.53;;;12.63;100.00
6942;BME280;3510;43.200;27.920;2024-02-26T09:06:52;100940.78;;;12.58;100.00
6942;BME280;3510;43.200;27.920;2024-02-26T09:09:20;100932.94;;;12.66;100.00
6942;BME280;3510;43.200;27.920;2024-02-26T09:11:50;100913.34;;;12.63;100.00
6942;BME280;3510;43.200;27.920;2024-02-26T09:14:19;100849.31;;;12.51;100.00
6942;BME280;3510;43.200;27.920;2024-02-26T09:16:46;100900.53;;;12.94;100.00
6942;BME280;3510;43.200;27.920;2024-02-26T09:19:14;100902.47;;;13.08;100.00
6942;BME280;3510;43.200;27.920;2024-02-26T09:21:47;100931.63;;;13.37;100.00
6942;BME280;3510;43.200;27.920;2024-02-26T09:24:14;100860.78;;;13.13;100.00
6942;BME280;3510;43.200;27.920;2024-02-26T09:29:18;100936.31;;;13.77;100.00
6942;BME280;3510;43.200;27.920;2024-02-26T09:34:21;100897.56;;;13.31;100.00
6942;BME280;3510;43.200;27.920;2024-02-26T09:36:48;100942.56;;;13.59;100.00
6942;BME280;3510;43.200;27.920;2024-02-26T09:39:15;100941.50;;;13.34;100.00
6942;BME280;3510;43.200;27.920;2024-02-26T09:41:47;100942.16;;;13.09;100.00
6942;BME280;3510;43.200;27.920;2024-02-26T09:44:17;100929.16;;;12.82;100.00
6942;BME280;3510;43.200;27.920;2024-02-26T09:46:47;100925.66;;;12.48;100.00
6942;BME280;3510;43.200;27.920;2024-02-26T09:49:15;100928.41;;;12.29;100.00
6942;BME280;3510;43.200;27.920;2024-02-26T09:51:44;100914.94;;;12.19;100.00
6942;BME280;3510;43.200;27.920;2024-02-26T09:54:11;100927.53;;;12.29;100.00
6942;BME280;3510;43.200;27.920;2024-02-26T09:56:40;100915.41;;;12.25;100.00
6942;BME280;3510;43.200;27.920;2024-02-26T09:59:12;100921.34;;;12.25;100.00
6942;BME280;3510;43.200;27.920;2024-02-26T10:01:42;100915.53;;;12.26;100.00
6942;BME280;3510;43.200;27.920;2024-02-26T10:04:11;100865.47;;;11.89;100.00
6942;BME280;3510;43.200;27.920;2024-02-26T10:06:39;100837.41;;;11.53;100.00
6942;BME280;3510;43.200;27.920;2024-02-26T10:09:09;100872.81;;;11.65;100.00
6942;BME280;3510;43.200;27.920;2024-02-26T10:14:14;100886.13;;;11.74;100.00
6942;BME280;3510;43.200;27.920;2024-02-26T10:16:43;100902.53;;;11.79;100.00
6942;BME280;3510;43.200;27.920;2024-02-26T10:19:24;100909.72;;;11.85;100.00
6942;BME280;3510;43.200;27.920;2024-02-26T10:21:56;100797.63;;;11.19;100.00
6942;BME280;3510;43.200;27.920;2024-02-26T10:24:29;100739.34;;;11.24;100.00
6942;BME280;3510;43.200;27.920;2024-02-26T10:26:56;100894.59;;;12.49;100.00
6942;BME280;3510;43.200;27.920;2024-02-26T10:29:25;100817.84;;;12.14;100.00
6942;BME280;3510;43.200;27.920;2024-02-26T10:32:04;100901.84;;;12.67;100.00
6942;BME280;3510;43.200;27.920;2024-02-26T10:37:29;100782.03;;;12.07;100.00
6942;BME280;3510;43.200;27.920;2024-02-26T10:40:02;100856.88;;;12.73;100.00
6942;BME280;3510;43.200;27.920;2024-02-26T10:42:30;100889.31;;;12.90;100.00
6942;BME280;3510;43.200;27.920;2024-02-26T10:44:58;100865.16;;;12.60;100.00
6942;BME280;3510;43.200;27.920;2024-02-26T10:47:24;100855.06;;;12.60;100.00
6942;BME280;3510;43.200;27.920;2024-02-26T10:49:51;100867.91;;;12.63;100.00
6942;BME280;3510;43.200;27.920;2024-02-26T10:52:19;100818.16;;;12.50;100.00
6942;BME280;3510;43.200;27.920;2024-02-26T10:54:48;100881.75;;;12.90;100.00
6942;BME280;3510;43.200;27.920;2024-02-26T10:57:18;100853.94;;;12.78;100.00
6942;BME280;3510;43.200;27.920;2024-02-26T10:59:45;100878.53;;;13.03;100.00
6942;BME280;3510;43.200;27.920;2024-02-26T11:02:13;100873.66;;;12.94;100.00
6942;BME280;3510;43.200;27.920;2024-02-26T11:04:46;100836.38;;;12.80;100.00
6942;BME280;3510;43.200;27.920;2024-02-26T11:07:14;100866.19;;;12.96;100.00
6942;BME280;3510;43.200;27.920;2024-02-26T11:09:41;100836.09;;;12.87;100.00
6942;BME280;3510;43.200;27.920;2024-02-26T11:12:13;100829.66;;;12.69;100.00
6942;BME280;3510;43.200;27.920;2024-02-26T11:14:42;100830.31;;;12.78;100.00
6942;BME280;3510;43.200;27.920;2024-02-26T11:17:11;100870.53;;;12.87;100.00
6942;BME280;3510;43.200;27.920;2024-02-26T11:19:41;100782.91;;;12.30;100.00
6942;BME280;3510;43.200;27.920;2024-02-26T11:22:10;100816.16;;;12.46;100.00
6942;BME280;3510;43.200;27.920;2024-02-26T11:24:37;100830.00;;;12.51;100.00
6942;BME280;3510;43.200;27.920;2024-02-26T11:27:10;100863.81;;;12.53;100.00
6942;BME280;3510;43.200;27.920;2024-02-26T11:29:54;100831.63;;;12.29;100.00
6942;BME280;3510;43.200;27.920;2024-02-26T11:34:58;100698.50;;;11.60;100.00
6942;BME280;3510;43.200;27.920;2024-02-26T11:37:26;100790.03;;;12.24;100.00
6942;BME280;3510;43.200;27.920;2024-02-26T11:39:52;100860.91;;;12.49;100.00
6942;BME280;3510;43.200;27.920;2024-02-26T11:42:23;100761.34;;;11.79;100.00
6942;BME280;3510;43.200;27.920;2024-02-26T11:44:55;100809.47;;;12.25;100.00
6942;BME280;3510;43.200;27.920;2024-02-26T11:47:27;100855.44;;;12.65;100.00
6942;BME280;3510;43.200;27.920;2024-02-26T11:49:54;100829.13;;;12.51;100.00
6942;BME280;3510;43.200;27.920;2024-02-26T11:52:20;100848.44;;;12.72;100.00
6942;BME280;3510;43.200;27.920;2024-02-26T11:54:49;100852.75;;;12.85;100.00
6942;BME280;3510;43.200;27.920;2024-02-26T11:57:23;100818.00;;;12.71;100.00
6942;BME280;3510;43.200;27.920;2024-02-26T11:59:51;100775.94;;;12.38;100.00
6942;BME280;3510;43.200;27.920;2024-02-26T12:02:52;100846.50;;;12.80;100.00
6942;BME280;3510;43.200;27.920;2024-02-26T12:05:24;100852.75;;;12.85;100.00
6942;BME280;3510;43.200;27.920;2024-02-26T12:07:54;100854.69;;;12.77;100.00
6942;BME280;3510;43.200;27.920;2024-02-26T12:10:24;100817.72;;;12.56;100.00
6942;BME280;3510;43.200;27.920;2024-02-26T12:12:58;100848.78;;;12.77;100.00
6942;BME280;3510;43.200;27.920;2024-02-26T12:15:30;100848.34;;;12.60;100.00
6942;BME280;3510;43.200;27.920;2024-02-26T12:18:02;100823.00;;;12.37;100.00
6942;BME280;3510;43.200;27.920;2024-02-26T12:20:31;100791.25;;;12.07;100.00
6942;BME280;3510;43.200;27.920;2024-02-26T12:22:58;100816.09;;;12.13;100.00
6942;BME280;3510;43.200;27.920;2024-02-26T12:25:26;100844.63;;;12.23;100.00
6942;BME280;3510;43.200;27.920;2024-02-26T12:27:53;100788.94;;;11.78;100.00
6942;BME280;3510;43.200;27.920;2024-02-26T12:30:20;100789.56;;;11.85;100.00
6942;BME280;3510;43.200;27.920;2024-02-26T12:32:48;100845.97;;;12.08;100.00
6942;BME280;3510;43.200;27.920;2024-02-26T12:35:17;100814.03;;;11.86;100.00
6942;BME280;3510;43.200;27.920;2024-02-26T12:37:44;100819.53;;;11.82;100.00
6942;BME280;3510;43.200;27.920;2024-02-26T12:40:11;100803.22;;;11.67;100.00
6942;BME280;3510;43.200;27.920;2024-02-26T12:42:39;100833.78;;;11.82;100.00
6942;BME280;3510;43.200;27.920;2024-02-26T12:45:07;100766.72;;;11.42;100.00
6942;BME280;3510;43.200;27.920;2024-02-26T12:47:36;100836.06;;;11.79;100.00
6942;BME280;3510;43.200;27.920;2024-02-26T12:50:06;100832.06;;;11.71;100.00
6942;BME280;3510;43.200;27.920;2024-02-26T12:52:37;100821.00;;;11.69;100.00
6942;BME280;3510;43.200;27.920;2024-02-26T12:55:06;100793.56;;;11.51;100.00
6942;BME280;3510;43.200;27.920;2024-02-26T12:57:35;100749.41;;;11.14;100.00
6942;BME280;3510;43.200;27.920;2024-02-26T13:00:05;100796.84;;;11.40;100.00
6942;BME280;3510;43.200;27.920;2024-02-26T13:02:35;100828.84;;;11.41;100.00
6942;BME280;3510;43.200;27.920;2024-02-26T13:07:43;100829.25;;;11.25;100.00
6942;BME280;3510;43.200;27.920;2024-02-26T13:10:12;100819.53;;;11.20;100.00
6942;BME280;3510;43.200;27.920;2024-02-26T13:12:43;100833.16;;;11.32;100.00
6942;BME280;3510;43.200;27.920;2024-02-26T13:15:15;100837.06;;;11.18;100.00
6942;BME280;3510;43.200;27.920;2024-02-26T13:17:43;100783.91;;;10.74;100.00
6942;BME280;3510;43.200;27.920;2024-02-26T13:20:11;100776.13;;;10.71;100.00
6942;BME280;3510;43.200;27.920;2024-02-26T13:22:38;100813.50;;;10.97;100.00
6942;BME280;3510;43.200;27.920;2024-02-26T13:25:07;100837.56;;;11.04;100.00
6942;BME280;3510;43.200;27.920;2024-02-26T13:27:35;100793.25;;;10.65;100.00